createdAt,value
2022-10-23T00:03:48.254Z,9.48
2022-10-23T00:07:52.564Z,9.07
2022-10-23T00:11:54.879Z,9.90
2022-10-23T00:15:57.054Z,8.82
2022-10-23T00:24:04.096Z,8.75
2022-10-23T00:28:06.237Z,8.65
2022-10-23T00:32:08.270Z,8.43
2022-10-23T00:36:15.045Z,8.35
2022-10-23T00:40:19.268Z,8.32
2022-10-23T00:44:21.393Z,8.13
2022-10-23T00:48:30.015Z,8.15
2022-10-23T00:52:41.703Z,7.78
2022-10-23T00:56:45.713Z,8.05
2022-10-23T01:00:51.541Z,8.73
2022-10-23T01:04:55.528Z,8.55
2022-10-23T01:09:09.303Z,8.32
2022-10-23T01:13:24.802Z,8.35
2022-10-23T01:17:49.411Z,8.70
2022-10-23T01:22:08.405Z,8.68
2022-10-23T01:26:22.943Z,8.70
2022-10-23T01:30:25.452Z,8.57
2022-10-23T01:34:41.666Z,8.18
2022-10-23T01:38:56.149Z,8.02
2022-10-23T01:43:05.486Z,8.65
2022-10-23T01:47:10.059Z,8.88
2022-10-23T01:51:27.504Z,7.90
2022-10-23T01:55:32.916Z,7.47
2022-10-23T01:59:42.726Z,7.93
2022-10-23T02:03:45.939Z,8.18
2022-10-23T02:07:48.748Z,8.05
2022-10-23T02:12:15.800Z,7.97
2022-10-23T02:17:07.065Z,7.28
2022-10-23T02:21:21.224Z,8.65
2022-10-23T02:25:33.805Z,8.82
2022-10-23T02:29:44.197Z,8.30
2022-10-23T02:33:48.097Z,9.00
2022-10-23T02:38:30.040Z,8.65
2022-10-23T02:42:39.123Z,8.93
2022-10-23T02:47:25.166Z,8.80
2022-10-23T02:51:43.209Z,8.07
2022-10-23T02:56:03.462Z,8.17
2022-10-23T03:00:15.665Z,9.40
2022-10-23T03:04:19.783Z,7.60
2022-10-23T03:08:22.845Z,8.90
2022-10-23T03:12:24.868Z,8.95
2022-10-23T03:16:27.367Z,8.73
2022-10-23T03:20:30.685Z,9.00
2022-10-23T03:24:32.690Z,8.35
2022-10-23T03:28:35.599Z,8.32
2022-10-23T03:32:37.702Z,9.05
2022-10-23T03:36:41.114Z,8.30
2022-10-23T03:40:44.611Z,9.00
2022-10-23T03:44:48.068Z,9.17
2022-10-23T03:48:50.084Z,8.50
2022-10-23T03:52:54.106Z,9.65
2022-10-23T03:56:57.634Z,8.73
2022-10-23T04:01:01.221Z,9.30
2022-10-23T04:05:03.602Z,8.98
2022-10-23T04:09:06.579Z,8.40
2022-10-23T04:13:08.907Z,8.85
2022-10-23T04:17:12.329Z,8.57
2022-10-23T04:21:14.675Z,8.95
2022-10-23T04:25:16.836Z,8.68
2022-10-23T04:29:22.621Z,9.07
2022-10-23T04:33:25.105Z,8.40
2022-10-23T04:37:28.272Z,9.88
2022-10-23T04:41:30.245Z,9.23
2022-10-23T04:45:32.173Z,9.02
2022-10-23T04:49:34.213Z,9.15
2022-10-23T04:53:47.752Z,8.63
2022-10-23T04:58:19.131Z,9.98
2022-10-23T05:02:21.316Z,9.52
2022-10-23T05:06:25.042Z,9.57
2022-10-23T05:10:50.955Z,9.88
2022-10-23T05:19:51.301Z,9.52
2022-10-23T05:23:54.526Z,9.10
2022-10-23T05:32:03.546Z,9.27
2022-10-23T05:36:08.059Z,9.82
2022-10-23T05:40:10.671Z,9.25
2022-10-23T05:44:15.604Z,9.60
2022-10-23T05:48:35.735Z,9.48
2022-10-23T05:52:46.632Z,9.70
2022-10-23T05:57:07.169Z,10.98
2022-10-23T06:01:23.219Z,10.82
2022-10-23T06:05:35.689Z,10.38
2022-10-23T06:10:13.678Z,9.95
2022-10-23T06:14:19.736Z,10.15
2022-10-23T06:18:24.298Z,9.43
2022-10-23T06:22:34.509Z,10.02
2022-10-23T06:26:50.271Z,10.02
2022-10-23T06:30:56.760Z,9.43
2022-10-23T06:34:58.947Z,9.80
2022-10-23T06:39:01.398Z,11.23
2022-10-23T06:43:23.310Z,10.32
2022-10-23T06:47:52.061Z,10.85
2022-10-23T06:52:46.502Z,9.95
2022-10-23T06:56:53.776Z,9.73
2022-10-23T07:01:11.373Z,9.50
2022-10-23T07:05:14.604Z,9.40
2022-10-23T07:09:18.191Z,9.20
2022-10-23T07:13:29.264Z,9.55
2022-10-23T07:17:35.464Z,8.93
2022-10-23T07:21:38.387Z,7.90
2022-10-23T07:25:55.935Z,7.93
2022-10-23T07:29:58.687Z,8.00
2022-10-23T07:34:07.327Z,8.82
2022-10-23T07:38:09.857Z,8.93
2022-10-23T07:42:16.598Z,8.40
2022-10-23T07:46:19.809Z,8.40
2022-10-23T07:50:23.058Z,8.05
2022-10-23T07:54:25.146Z,8.10
2022-10-23T07:58:36.501Z,8.10
2022-10-23T08:02:47.148Z,8.38
2022-10-23T08:06:49.218Z,9.00
2022-10-23T08:10:53.786Z,9.30
2022-10-23T08:15:02.063Z,9.60
2022-10-23T08:19:13.087Z,8.73
2022-10-23T08:23:18.571Z,8.68
2022-10-23T08:27:20.670Z,8.02
2022-10-23T08:31:24.669Z,9.30
2022-10-23T08:35:52.617Z,8.98
2022-10-23T08:40:03.999Z,8.80
2022-10-23T08:44:50.192Z,8.48
2022-10-23T08:49:07.131Z,9.05
2022-10-23T08:53:22.420Z,9.30
2022-10-23T08:57:33.521Z,8.10
2022-10-23T09:01:52.778Z,8.50
2022-10-23T09:06:06.040Z,8.68
2022-10-23T09:10:49.260Z,8.70
2022-10-23T09:15:08.550Z,8.05
2022-10-23T09:19:26.360Z,8.00
2022-10-23T09:23:28.794Z,9.05
2022-10-23T09:27:30.803Z,7.65
2022-10-23T09:31:32.708Z,7.68
2022-10-23T09:35:34.827Z,7.05
2022-10-23T09:39:36.967Z,7.35
2022-10-23T09:43:39.235Z,6.03
2022-10-23T09:47:42.965Z,6.18
2022-10-23T09:52:09.885Z,6.07
2022-10-23T09:56:27.134Z,5.50
2022-10-23T10:00:29.263Z,6.00
2022-10-23T10:04:37.390Z,5.68
2022-10-23T10:08:52.200Z,4.80
2022-10-23T10:13:01.657Z,5.10
2022-10-23T10:17:11.533Z,5.32
2022-10-23T10:21:41.488Z,6.15
2022-10-23T10:25:59.771Z,5.90
2022-10-23T10:30:14.774Z,5.85
2022-10-23T10:34:39.114Z,6.50
2022-10-23T10:38:50.390Z,5.43
2022-10-23T10:43:23.473Z,5.50
2022-10-23T10:47:25.692Z,4.65
2022-10-23T10:51:51.008Z,4.95
2022-10-23T10:55:55.784Z,5.20
2022-10-23T11:00:05.045Z,4.90
2022-10-23T11:04:22.239Z,5.90
2022-10-23T11:08:29.518Z,5.55
2022-10-23T11:12:32.756Z,5.25
2022-10-23T11:16:39.758Z,5.22
2022-10-23T11:20:44.618Z,4.90
2022-10-23T11:25:01.817Z,5.57
2022-10-23T11:29:21.682Z,5.15
2022-10-23T11:33:48.729Z,4.82
2022-10-23T11:38:12.680Z,5.07
2022-10-23T11:42:32.969Z,5.90
2022-10-23T11:46:37.316Z,5.03
2022-10-23T11:50:45.369Z,5.53
2022-10-23T11:54:47.400Z,5.18
2022-10-23T11:59:30.453Z,5.80
2022-10-23T12:03:49.026Z,5.45
2022-10-23T12:07:56.855Z,5.40
2022-10-23T12:12:15.872Z,5.70
2022-10-23T12:16:17.807Z,5.55
2022-10-23T12:20:35.405Z,6.03
2022-10-23T12:24:49.386Z,5.63
2022-10-23T12:28:59.111Z,6.22
2022-10-23T12:33:26.929Z,5.75
2022-10-23T12:38:04.724Z,5.30
2022-10-23T12:42:23.575Z,4.90
2022-10-23T12:46:30.635Z,5.38
2022-10-23T12:50:34.477Z,5.10
2022-10-23T12:54:39.671Z,5.68
2022-10-23T12:58:52.505Z,5.07
2022-10-23T13:03:02.323Z,6.05
2022-10-23T13:07:04.648Z,5.40
2022-10-23T13:11:14.467Z,5.43
2022-10-23T13:15:20.221Z,5.20
2022-10-23T13:19:24.071Z,4.75
2022-10-23T13:23:25.980Z,4.75
2022-10-23T13:27:33.357Z,5.35
2022-10-23T13:31:35.725Z,5.03
2022-10-23T13:35:37.868Z,5.03
2022-10-23T13:39:39.787Z,4.80
2022-10-23T13:43:42.922Z,5.85
2022-10-23T13:47:45.435Z,5.65
2022-10-23T13:51:56.471Z,4.70
2022-10-23T13:55:58.877Z,4.80
2022-10-23T14:00:00.932Z,5.32
2022-10-23T14:04:04.510Z,4.57
2022-10-23T14:12:08.818Z,5.05
2022-10-23T14:16:13.747Z,5.07
2022-10-23T14:20:18.985Z,4.72
2022-10-23T14:24:23.457Z,5.32
2022-10-23T14:28:25.348Z,5.15
2022-10-23T14:32:27.458Z,4.65
2022-10-23T14:36:38.610Z,5.03
2022-10-23T14:40:51.952Z,4.63
2022-10-23T14:44:54.120Z,4.72
2022-10-23T14:48:58.736Z,5.40
2022-10-23T14:53:04.367Z,4.80
2022-10-23T14:57:06.371Z,4.78
2022-10-23T15:01:08.580Z,5.55
2022-10-23T15:05:10.740Z,5.25
2022-10-23T15:09:14.055Z,5.20
2022-10-23T15:13:16.024Z,5.90
2022-10-23T15:17:18.012Z,5.10
2022-10-23T15:21:20.100Z,6.35
2022-10-23T15:25:22.060Z,5.32
2022-10-23T15:29:24.018Z,5.88
2022-10-23T15:33:26.538Z,5.53
2022-10-23T15:37:28.646Z,5.65
2022-10-23T15:41:32.894Z,5.97
2022-10-23T15:45:34.880Z,5.40
2022-10-23T15:49:37.125Z,5.80
2022-10-23T15:53:39.488Z,5.75
2022-10-23T15:57:41.549Z,5.88
2022-10-23T16:01:43.621Z,5.57
2022-10-23T16:05:45.825Z,6.18
2022-10-23T16:09:47.854Z,5.85
2022-10-23T16:13:50.131Z,5.68
2022-10-23T16:17:52.509Z,6.32
2022-10-23T16:21:54.603Z,6.63
2022-10-23T16:25:56.736Z,5.57
2022-10-23T16:29:59.100Z,6.03
2022-10-23T16:34:03.561Z,6.18
2022-10-23T16:38:06.051Z,5.88
2022-10-23T16:42:08.153Z,6.18
2022-10-23T16:46:23.604Z,6.20
2022-10-23T16:50:25.543Z,5.90
2022-10-23T16:54:27.631Z,6.18
2022-10-23T16:58:29.676Z,6.47
2022-10-23T17:02:32.054Z,8.55
2022-10-23T17:06:34.686Z,7.20
2022-10-23T17:10:36.782Z,7.22
2022-10-23T17:14:39.495Z,6.97
2022-10-23T17:18:44.130Z,6.38
2022-10-23T17:22:46.277Z,6.53
2022-10-23T17:26:48.542Z,7.32
2022-10-23T17:30:50.845Z,7.10
2022-10-23T17:34:52.931Z,7.57
2022-10-23T17:38:55.632Z,7.53
2022-10-23T17:42:57.646Z,7.63
2022-10-23T17:46:59.775Z,7.75
2022-10-23T17:51:14.040Z,7.13
2022-10-23T17:59:21.493Z,7.00
2022-10-23T18:03:23.487Z,13.07
2022-10-23T18:07:26.629Z,8.63
2022-10-23T18:11:32.280Z,7.75
2022-10-23T18:15:35.800Z,8.25
2022-10-23T18:19:37.859Z,7.22
2022-10-23T18:23:40.264Z,6.65
2022-10-23T18:27:42.940Z,7.40
2022-10-23T18:31:45.895Z,7.15
2022-10-23T18:35:48.883Z,7.28
2022-10-23T18:39:50.957Z,6.70
2022-10-23T18:43:54.427Z,7.63
2022-10-23T18:47:56.753Z,7.63
2022-10-23T18:51:58.728Z,7.75
2022-10-23T18:56:00.882Z,8.38
2022-10-23T19:00:05.913Z,8.60
2022-10-23T19:04:08.511Z,8.63
2022-10-23T19:08:11.257Z,10.02
2022-10-23T19:16:38.847Z,9.77
2022-10-23T19:20:43.554Z,9.15
2022-10-23T19:24:48.941Z,9.50
2022-10-23T19:32:59.928Z,8.18
2022-10-23T19:37:02.160Z,7.63
2022-10-23T19:41:04.891Z,7.35
2022-10-23T19:45:11.934Z,7.28
2022-10-23T19:49:17.941Z,7.07
2022-10-23T19:53:20.354Z,7.47
2022-10-23T19:57:22.869Z,6.97
2022-10-23T20:01:26.134Z,7.43
2022-10-23T20:05:28.393Z,7.80
2022-10-23T20:09:30.959Z,8.30
2022-10-23T20:13:33.257Z,7.72
2022-10-23T20:17:35.987Z,9.65
2022-10-23T20:21:43.728Z,9.18
2022-10-23T20:25:45.780Z,9.80
2022-10-23T20:29:49.266Z,9.55
2022-10-23T20:33:52.262Z,9.93
2022-10-23T20:37:54.257Z,9.85
2022-10-23T20:41:56.978Z,10.55
2022-10-23T20:46:04.467Z,9.93
2022-10-23T20:50:07.191Z,10.02
2022-10-23T20:54:09.153Z,10.48
2022-10-23T20:58:11.146Z,10.20
2022-10-23T21:02:13.234Z,11.38
2022-10-23T21:06:16.159Z,10.88
2022-10-23T21:10:18.236Z,11.45
2022-10-23T21:14:20.503Z,11.05
2022-10-23T21:18:27.305Z,11.63
2022-10-23T21:22:35.821Z,10.75
2022-10-23T21:26:37.796Z,10.63
2022-10-23T21:30:41.241Z,10.57
2022-10-23T21:34:43.329Z,9.87
2022-10-23T21:38:47.831Z,9.98
2022-10-23T21:42:49.877Z,10.52
2022-10-23T21:46:51.839Z,10.70
2022-10-23T21:51:00.454Z,10.32
2022-10-23T21:55:02.537Z,9.73
2022-10-23T22:03:13.402Z,10.15
2022-10-23T22:07:15.694Z,10.88
2022-10-23T22:11:18.286Z,10.38
2022-10-23T22:15:20.450Z,9.50
2022-10-23T22:19:23.776Z,9.35
2022-10-23T22:23:25.983Z,10.93
2022-10-23T22:27:28.256Z,10.90
2022-10-23T22:31:31.960Z,11.20
2022-10-23T22:35:33.935Z,11.85
2022-10-23T22:39:35.961Z,11.02
2022-10-23T22:43:37.985Z,11.18
2022-10-23T22:47:40.059Z,10.68
2022-10-23T22:51:42.006Z,11.35
2022-10-23T22:55:43.917Z,11.27
2022-10-23T22:59:45.900Z,12.55
2022-10-23T23:03:49.106Z,10.48
2022-10-23T23:07:51.158Z,11.02
2022-10-23T23:11:53.156Z,11.02
2022-10-23T23:15:56.178Z,10.90
2022-10-23T23:19:58.690Z,10.73
2022-10-23T23:24:00.642Z,11.45
2022-10-23T23:28:02.766Z,10.88
2022-10-23T23:32:06.238Z,12.45
2022-10-23T23:36:10.982Z,11.97
2022-10-23T23:40:13.981Z,11.52
2022-10-23T23:44:16.026Z,10.77
2022-10-23T23:48:17.958Z,10.85
2022-10-23T23:52:20.033Z,10.27
2022-10-23T23:56:22.547Z,10.50
